Westerly, RI

12:28 PM EDT on June 02, 2015 (GMT -0400)
APRSWXNET | | Change Station
CLOSE
Current Station
Personal Weather Station
Location: Westerly, RI
Elevation: 68 ft
Nearby Weather Stations

Elev 68 ft 41.35 °N, 71.82 °W | Updated 53 minutes ago

Light Rain
Light Rain Mist
49 °F
Feels Like 45 °F
N
9
Wind Variable Wind from NE
Gusts 7.0 mph

Today
High -- | Low -- °F
--% Chance of Precip.
Yesterday
High -- | Low -- °F
Precip. -- in
5:16 AM 8:14 PM
Full, 100% visible
Pressure 30.15 in
Visibility 4.0 miles
Clouds Scattered Clouds 800 ft
Mostly Cloudy 1200 ft
Overcast 3400 ft
Windchill 45 °F
Dew Point 48 °F
Humidity 96%
Rainfall in
Snow Depth Not available.
UV 3 out of 12
Pollen 1.00 out of 12
Air Quality Not available.
Flu Activity No Activity
METAR KWST 021553Z AUTO 02009KT 4SM -RA BR SCT008 BKN012 OVC034 11/09 A3015 RMK AO2 RAB03 SLP209 P0004 T01060089

More Conditions Fewer Conditions

Pressure 30.15 in
Visibility 4.0 miles
Clouds Scattered Clouds 800 ft
Mostly Cloudy 1200 ft
Overcast 3400 ft
Windchill 45 °F
Dew Point 48 °F
Humidity 96%
Rainfall in
Snow Depth Not available.
UV 3 out of 12
Pollen 1.00 out of 12
Air Quality Not available.
Flu Activity No Activity
METAR KWST 021553Z AUTO 02009KT 4SM -RA BR SCT008 BKN012 OVC034 11/09 A3015 RMK AO2 RAB03 SLP209 P0004 T01060089

More Conditions Fewer Conditions

10-Day Weather Forecast

Almanac

Astronomy

Jun. 02, 2015 Rise Set
Actual Time
Civil Twilight
Nautical Twilight
Astronomical Twilight
Moon
Length of Visible Light
Length of Day
Tomorrow will be .
, % of the Moon is Illuminated

Today's Extremes

State Highs State Lows

Community

WunderPhotos

Upload Photos

1,825,974 photos uploaded!

WunderBlogs® & News

Nearby

Air Quality

  Air Quality AQ Index Pollutant
Not available.

Snow Depth

Station Depth Elevation

Earthquake Activity

City Distance Mag. Time & Date
Minimum magnitude displayed is 2.5.

Coastal Water Temperatures

Place Temperature

Stations

Nearby Weather Stations

Station Location Temp. Windchill Dew Point Humidity Wind Precip. Elev Updated Type